Time;durP1;ratioP1;P1;durP2;ratioP2;P2;SDS_P1;SDS_P2;PMS_P1;PMS_P2;Temp;Humidity;BMP_temperature;BMP_pressure;BME280_temperature;BME280_humidity;BME280_pressure;Samples;Min_cycle;Max_cycle;Signal;HPM_P1;HPM_P2
2021/09/22 00:00:53;;;;;;;7.03;6.27;;;;;;;12.98;60.70;100336.56;5070841;28;20240;-80
2021/09/22 00:03:53;;;;;;;7.10;6.40;;;;;;;13.04;60.18;100334.88;5070797;28;20261;-80
2021/09/22 00:06:26;;;;;;;7.20;6.50;;;;;;;12.96;60.48;100324.38;5071032;28;20190;-80
2021/09/22 00:09:03;;;;;;;7.43;6.73;;;;;;;12.87;60.69;100315.75;5076159;22;20205;-79
2021/09/22 00:11:45;;;;;;;7.73;6.33;;;;;;;12.89;61.04;100327.09;5048865;28;20234;-80
2021/09/22 00:14:34;;;;;;;7.43;6.03;;;;;;;12.95;60.53;100323.56;5050541;28;20586;-80
2021/09/22 00:17:18;;;;;;;7.40;6.00;;;;;;;12.89;61.03;100313.66;5051131;28;20305;-80
2021/09/22 00:19:51;;;;;;;7.20;6.50;;;;;;;13.03;59.85;100312.50;5050857;28;20194;-80
2021/09/22 00:22:28;;;;;;;8.70;6.53;;;;;;;13.04;59.46;100305.28;5051323;28;20240;-79
2021/09/22 00:25:37;;;;;;;7.10;6.40;;;;;;;13.05;59.63;100315.00;5063851;22;20249;-80
2021/09/22 00:28:17;;;;;;;6.93;6.13;;;;;;;12.98;60.36;100308.84;5069157;28;20237;-80
2021/09/22 00:31:39;;;;;;;8.00;6.37;;;;;;;13.10;59.73;100309.78;5073130;28;20296;-80
2021/09/22 00:34:33;;;;;;;6.93;6.07;;;;;;;13.08;60.32;100307.31;5078606;22;20230;-80
2021/09/22 00:37:09;;;;;;;7.97;6.17;;;;;;;12.95;60.12;100299.34;5072279;28;20333;-80
2021/09/22 00:40:04;;;;;;;7.07;6.17;;;;;;;13.02;60.09;100316.25;5058021;28;20221;-80
2021/09/22 00:42:58;;;;;;;6.90;6.20;;;;;;;13.06;60.09;100305.91;5072772;28;20189;-80
2021/09/22 00:46:21;;;;;;;7.10;6.40;;;;;;;13.04;59.82;100306.09;5018656;28;20475;-80
2021/09/22 00:49:19;;;;;;;6.57;6.03;;;;;;;13.04;59.44;100297.22;5032750;28;20247;-79
2021/09/22 00:51:59;;;;;;;6.60;6.00;;;;;;;13.04;59.48;100295.34;5031845;28;20218;-80
2021/09/22 00:55:10;;;;;;;7.20;6.50;;;;;;;12.97;59.31;100275.72;5031639;28;20290;-80
2021/09/22 00:58:00;;;;;;;7.20;6.20;;;;;;;13.02;59.59;100283.13;5032590;28;20207;-80
2021/09/22 01:00:59;;;;;;;7.13;6.43;;;;;;;13.11;59.51;100279.19;5031983;28;20241;-79
2021/09/22 01:04:31;;;;;;;7.93;6.10;;;;;;;13.17;58.79;100276.41;5032921;28;20318;-80
2021/09/22 01:07:19;;;;;;;8.27;6.50;;;;;;;13.14;58.95;100267.97;5031486;28;20203;-80
2021/09/22 01:10:13;;;;;;;7.70;6.90;;;;;;;13.13;58.48;100260.94;5032664;28;20239;-80
2021/09/22 01:13:16;;;;;;;8.33;6.83;;;;;;;13.14;58.60;100257.22;5026073;28;20238;-79
2021/09/22 01:16:02;;;;;;;7.13;6.43;;;;;;;13.30;57.76;100261.22;5031306;28;20254;-80
2021/09/22 01:19:07;;;;;;;7.87;7.17;;;;;;;13.21;58.07;100255.28;5032592;28;20202;-80
2021/09/22 01:21:57;;;;;;;7.60;6.57;;;;;;;13.16;58.27;100258.63;5032812;28;20192;-80
2021/09/22 01:25:17;;;;;;;6.90;6.20;;;;;;;13.08;57.02;100225.78;5042061;22;20211;-79
2021/09/22 01:28:31;;;;;;;7.00;6.40;;;;;;;13.21;57.65;100241.81;5030369;28;20237;-80
2021/09/22 01:32:01;;;;;;;7.33;6.20;;;;;;;13.20;57.73;100246.38;4991762;28;20208;-80
2021/09/22 01:35:25;;;;;;;7.00;6.40;;;;;;;13.20;57.47;100240.19;4991296;28;20232;-79
2021/09/22 01:38:28;;;;;;;6.90;6.20;;;;;;;13.20;57.07;100232.91;4992797;28;20284;-80
2021/09/22 01:41:57;;;;;;;7.20;6.50;;;;;;;13.20;57.61;100232.13;4993824;28;20236;-79
2021/09/22 01:44:55;;;;;;;6.93;6.33;;;;;;;13.21;57.57;100228.38;5005558;28;20348;-80
2021/09/22 01:47:45;;;;;;;6.97;6.27;;;;;;;13.17;57.81;100235.25;4995120;28;20212;-80
2021/09/22 01:51:08;;;;;;;7.23;5.90;;;;;;;13.09;57.82;100224.75;5012488;28;20532;-79
2021/09/22 01:54:42;;;;;;;7.10;6.40;;;;;;;13.14;57.25;100224.94;5110379;22;20236;-80
2021/09/22 01:58:05;;;;;;;7.17;5.90;;;;;;;13.01;57.41;100208.88;5085412;23;20240;-80
2021/09/22 02:01:16;;;;;;;6.87;5.90;;;;;;;13.11;57.10;100217.31;5113019;28;20195;-80
2021/09/22 02:04:31;;;;;;;6.83;6.10;;;;;;;13.11;57.39;100220.00;5090030;28;20224;-80
2021/09/22 02:07:20;;;;;;;6.47;5.87;;;;;;;13.13;57.69;100216.03;5067140;22;20250;-80
2021/09/22 02:10:12;;;;;;;7.60;6.80;;;;;;;13.04;57.75;100211.13;5009052;28;20257;-79
2021/09/22 02:12:49;;;;;;;6.77;6.10;;;;;;;13.14;57.14;100214.16;4974628;28;20192;-80
2021/09/22 02:15:30;;;;;;;7.37;6.60;;;;;;;13.09;57.11;100209.41;4991946;28;20202;-80
2021/09/22 02:18:42;;;;;;;6.73;6.13;;;;;;;13.12;57.40;100208.19;5016016;28;20226;-80
2021/09/22 02:21:41;;;;;;;7.33;6.73;;;;;;;13.13;57.27;100207.97;5030843;28;20297;-80
2021/09/22 02:24:44;;;;;;;7.67;6.87;;;;;;;13.15;57.04;100205.88;5013029;28;20635;-79
2021/09/22 02:27:45;;;;;;;7.80;5.93;;;;;;;13.19;56.62;100211.63;5031254;28;20249;-80
2021/09/22 02:31:18;;;;;;;6.80;6.20;;;;;;;13.17;56.94;100201.09;5026382;28;20281;-80
2021/09/22 02:34:05;;;;;;;7.73;5.90;;;;;;;13.08;56.91;100194.31;5028334;28;20241;-80
2021/09/22 02:37:04;;;;;;;7.50;6.03;;;;;;;13.06;57.38;100198.28;5033758;28;20249;-80
2021/09/22 02:40:20;;;;;;;6.73;6.07;;;;;;;12.99;57.46;100192.97;4998133;28;20226;-81
2021/09/22 02:43:03;;;;;;;7.40;6.70;;;;;;;13.06;56.76;100185.66;5016121;28;20203;-80
2021/09/22 02:46:17;;;;;;;7.47;6.50;;;;;;;13.08;57.45;100193.50;5015507;28;20223;-80
2021/09/22 02:49:32;;;;;;;7.17;6.47;;;;;;;12.99;57.46;100181.38;5014724;28;20290;-80
2021/09/22 02:52:52;;;;;;;6.63;6.07;;;;;;;13.01;57.23;100182.81;5016983;28;20219;-79
2021/09/22 02:55:26;;;;;;;6.83;6.23;;;;;;;12.99;57.55;100184.06;5030778;28;20241;-80
2021/09/22 02:57:57;;;;;;;7.20;6.50;;;;;;;13.04;57.41;100184.22;5059765;23;20222;-79
2021/09/22 03:00:54;;;;;;;7.17;6.47;;;;;;;13.03;57.30;100180.72;5033479;28;20234;-81
2021/09/22 03:04:02;;;;;;;7.07;6.43;;;;;;;13.12;56.71;100178.59;5030475;28;20198;-79
2021/09/22 03:06:53;;;;;;;6.77;6.17;;;;;;;13.12;56.51;100171.34;5075037;28;20229;-80
2021/09/22 03:10:00;;;;;;;9.60;6.87;;;;;;;13.07;56.40;100167.63;5074963;28;20221;-80
2021/09/22 03:12:55;;;;;;;6.60;6.00;;;;;;;13.15;55.97;100173.59;5095493;22;20228;-80
2021/09/22 03:15:53;;;;;;;7.20;6.50;;;;;;;13.26;55.57;100173.88;5102115;28;20197;-80
2021/09/22 03:18:42;;;;;;;7.27;6.60;;;;;;;13.26;55.43;100165.81;5092604;28;20228;-80
2021/09/22 03:21:38;;;;;;;7.87;7.10;;;;;;;13.27;55.48;100162.91;5111397;23;20304;-80
2021/09/22 03:25:18;;;;;;;7.57;6.97;;;;;;;13.23;55.49;100157.16;5113477;28;20224;-80
2021/09/22 03:28:34;;;;;;;7.70;6.90;;;;;;;13.16;55.96;100156.38;5072956;23;20282;-80
2021/09/22 03:31:46;;;;;;;7.17;6.53;;;;;;;13.26;56.16;100161.25;5094542;28;20227;-80
2021/09/22 03:34:40;;;;;;;7.60;6.93;;;;;;;13.23;56.17;100159.84;5122338;23;20225;-80
2021/09/22 03:37:49;;;;;;;7.43;6.83;;;;;;;13.20;56.17;100151.41;5086171;23;20288;-80
2021/09/22 03:40:54;;;;;;;7.20;6.60;;;;;;;13.16;56.62;100137.56;5086897;23;20220;-80
2021/09/22 03:43:46;;;;;;;7.90;6.80;;;;;;;13.16;56.13;100145.63;5082795;28;20223;-80
2021/09/22 03:46:25;;;;;;;7.80;7.10;;;;;;;13.25;55.71;100130.00;5115295;28;20307;-80
2021/09/22 03:49:26;;;;;;;7.70;7.00;;;;;;;13.35;55.41;100134.84;5099138;23;20642;-80
2021/09/22 03:52:12;;;;;;;9.63;6.70;;;;;;;13.31;55.51;100131.81;5098153;22;20232;-79
2021/09/22 03:54:47;;;;;;;8.67;7.20;;;;;;;13.25;55.18;100116.53;5163473;23;20221;-80
2021/09/22 03:57:50;;;;;;;8.33;6.70;;;;;;;13.31;55.10;100130.97;5094450;28;20209;-80
2021/09/22 04:01:04;;;;;;;7.07;6.37;;;;;;;13.26;55.70;100122.75;5093644;28;20224;-79
2021/09/22 04:03:58;;;;;;;7.27;6.57;;;;;;;13.21;55.91;100124.25;5094124;28;20216;-80
2021/09/22 04:06:29;;;;;;;7.60;6.90;;;;;;;13.29;55.52;100120.47;5094109;28;20232;-80
2021/09/22 04:09:24;;;;;;;7.73;7.03;;;;;;;13.16;55.94;100105.28;5081403;22;20213;-79
2021/09/22 04:12:00;;;;;;;7.77;7.07;;;;;;;13.23;55.34;100105.22;5057593;28;20189;-80
2021/09/22 04:15:01;;;;;;;7.90;7.17;;;;;;;13.30;55.25;100102.44;5058312;28;20225;-79
2021/09/22 04:17:40;;;;;;;7.77;6.93;;;;;;;13.28;55.02;100109.91;5078452;23;20239;-79
2021/09/22 04:20:51;;;;;;;8.07;7.33;;;;;;;13.37;54.44;100114.75;5050935;23;20233;-80
2021/09/22 04:24:21;;;;;;;9.10;7.83;;;;;;;13.34;54.43;100111.72;5137830;23;20228;-80
2021/09/22 04:27:23;;;;;;;8.37;7.17;;;;;;;13.38;54.34;100111.03;5073651;28;20296;-80
2021/09/22 04:31:06;;;;;;;8.53;7.70;;;;;;;13.51;52.93;100094.72;5053962;23;20230;-80
2021/09/22 04:34:05;;;;;;;8.17;7.37;;;;;;;13.44;53.62;100098.50;5092152;23;20219;-80
2021/09/22 04:37:56;;;;;;;7.47;6.60;;;;;;;13.64;53.27;100096.38;5088285;28;20259;-80
2021/09/22 04:41:34;;;;;;;7.33;6.63;;;;;;;13.57;53.23;100090.28;5060606;28;20196;-80
2021/09/22 04:44:45;;;;;;;7.50;6.70;;;;;;;13.67;52.89;100091.38;5045270;23;20301;-80
2021/09/22 04:48:00;;;;;;;7.60;6.90;;;;;;;13.80;53.30;100087.69;5075650;23;20251;-80
2021/09/22 04:51:50;;;;;;;7.93;7.13;;;;;;;13.70;53.87;100081.19;5048626;23;20301;-80
2021/09/22 04:55:05;;;;;;;8.37;7.63;;;;;;;13.79;53.35;100077.13;5062471;23;20224;-80
2021/09/22 04:58:22;;;;;;;7.90;7.20;;;;;;;13.75;53.56;100068.69;4977887;28;20187;-80
2021/09/22 05:01:53;;;;;;;8.67;7.53;;;;;;;13.65;54.65;100068.44;5017607;28;20213;-80
2021/09/22 05:04:49;;;;;;;8.73;7.90;;;;;;;13.75;54.63;100057.09;5016890;28;20238;-80
2021/09/22 05:08:24;;;;;;;8.83;7.40;;;;;;;13.66;54.46;100048.53;5049576;23;20245;-80
2021/09/22 05:11:50;;;;;;;10.43;7.50;;;;;;;13.94;53.78;100064.06;5034170;28;20222;-79
2021/09/22 05:14:58;;;;;;;8.23;7.00;;;;;;;13.79;54.36;100060.97;5017981;28;20269;-80
2021/09/22 05:17:50;;;;;;;8.00;7.20;;;;;;;13.90;54.08;100069.09;5047065;22;20209;-80
2021/09/22 05:21:15;;;;;;;8.30;7.50;;;;;;;13.89;53.85;100055.84;5059258;23;20204;-80
2021/09/22 05:24:41;;;;;;;7.67;6.87;;;;;;;14.02;54.37;100080.72;5037088;28;20189;-80
2021/09/22 05:27:53;;;;;;;8.27;7.47;;;;;;;13.96;54.50;100061.94;5074852;22;20263;-80
2021/09/22 05:30:55;;;;;;;7.97;7.27;;;;;;;13.93;54.40;100059.72;5074330;22;20164;-79
2021/09/22 05:34:51;;;;;;;8.37;7.57;;;;;;;13.88;55.10;100073.88;4969988;23;20217;-80
2021/09/22 05:38:13;;;;;;;9.03;7.80;;;;;;;14.00;54.83;100081.97;5073835;22;20228;-80
2021/09/22 05:41:05;;;;;;;8.60;7.80;;;;;;;13.77;55.42;100055.81;5083264;22;20223;-81
2021/09/22 05:44:28;;;;;;;8.83;8.03;;;;;;;13.81;56.69;100077.72;5037276;28;20220;-80
2021/09/22 05:47:22;;;;;;;9.17;7.83;;;;;;;13.80;56.64;100074.22;5037313;28;20290;-79
2021/09/22 05:50:12;;;;;;;9.07;8.17;;;;;;;13.78;56.78;100081.69;5037642;28;20206;-80
2021/09/22 05:53:19;;;;;;;11.17;8.60;;;;;;;13.75;57.34;100081.34;5071733;22;20592;-80
2021/09/22 05:56:46;;;;;;;8.97;7.93;;;;;;;13.77;56.61;100090.00;5077193;28;20693;-80
2021/09/22 06:00:28;;;;;;;9.60;7.33;;;;;;;13.71;57.46;100082.84;5076864;28;20239;-79
2021/09/22 06:03:35;;;;;;;8.33;7.53;;;;;;;13.78;57.92;100078.19;5071838;22;20252;-79
2021/09/22 06:06:56;;;;;;;8.60;7.80;;;;;;;13.59;57.95;100072.84;5070508;22;20213;-80
2021/09/22 06:10:17;;;;;;;8.30;7.50;;;;;;;13.62;58.79;100085.03;5027877;23;20214;-80
2021/09/22 06:13:41;;;;;;;8.20;7.50;;;;;;;13.59;58.12;100082.78;5062488;22;20206;-79
2021/09/22 06:16:58;;;;;;;8.80;7.90;;;;;;;13.48;58.27;100087.09;5029258;28;20217;-79
2021/09/22 06:19:36;;;;;;;8.73;7.93;;;;;;;13.48;58.50;100080.88;5027599;28;20559;-79
2021/09/22 06:23:17;;;;;;;8.40;7.63;;;;;;;13.40;58.99;100087.38;5096478;23;20246;-79
2021/09/22 06:25:56;;;;;;;8.90;8.00;;;;;;;13.43;58.85;100083.44;5197720;22;20271;-80
2021/09/22 06:28:41;;;;;;;8.80;7.90;;;;;;;13.33;59.25;100086.66;5165341;22;20238;-79
2021/09/22 06:31:57;;;;;;;7.90;7.20;;;;;;;13.27;58.99;100087.56;5020207;28;20212;-80
2021/09/22 06:34:56;;;;;;;8.80;7.90;;;;;;;13.19;58.85;100085.19;5076298;23;20264;-79
2021/09/22 06:38:11;;;;;;;9.07;8.10;;;;;;;13.33;59.40;100112.75;5022697;23;20198;-80
2021/09/22 06:41:47;;;;;;;9.03;8.20;;;;;;;13.23;59.42;100108.72;5050834;28;20273;-79
2021/09/22 06:44:59;;;;;;;9.00;8.10;;;;;;;13.31;59.35;100115.66;5238489;23;20216;-80
2021/09/22 06:48:11;;;;;;;9.03;8.23;;;;;;;13.12;59.91;100117.53;5040921;28;20210;-80
2021/09/22 06:50:58;;;;;;;8.60;7.80;;;;;;;13.02;60.12;100102.91;5041622;28;20229;-79
2021/09/22 06:53:58;;;;;;;9.07;8.20;;;;;;;13.22;60.36;100128.59;5066854;23;20257;-80
2021/09/22 06:57:21;;;;;;;9.10;8.27;;;;;;;13.17;61.02;100128.44;5053089;23;20210;-79
2021/09/22 07:00:09;;;;;;;9.73;8.73;;;;;;;13.19;61.50;100139.81;5042970;23;20256;-79
2021/09/22 07:03:28;;;;;;;9.40;8.60;;;;;;;13.07;62.62;100141.56;5059646;28;20242;-80
2021/09/22 07:06:11;;;;;;;10.00;9.10;;;;;;;12.86;62.68;100123.19;5066514;23;20190;-79
2021/09/22 07:09:28;;;;;;;10.80;9.80;;;;;;;12.96;63.31;100154.94;5059483;28;20233;-79
2021/09/22 07:12:31;;;;;;;10.53;9.43;;;;;;;12.79;62.99;100155.50;5006777;28;20230;-79
2021/09/22 07:15:27;;;;;;;11.13;10.13;;;;;;;12.98;63.53;100161.72;4980315;28;20232;-79
2021/09/22 07:18:18;;;;;;;11.03;9.93;;;;;;;13.06;63.72;100157.94;4980933;28;20235;-79
2021/09/22 07:21:19;;;;;;;11.27;10.10;;;;;;;12.88;65.63;100163.31;4979736;28;20217;-79
2021/09/22 07:23:47;;;;;;;10.93;9.93;;;;;;;12.80;66.47;100159.84;5206875;23;20228;-79
2021/09/22 07:26:17;;;;;;;11.30;10.23;;;;;;;12.60;67.08;100150.28;5023741;28;20230;-79
2021/09/22 07:29:03;;;;;;;11.50;10.47;;;;;;;12.64;67.75;100176.53;5039619;28;20249;-79
2021/09/22 07:31:52;;;;;;;11.77;10.47;;;;;;;12.59;67.98;100187.13;5061521;23;20237;-79
2021/09/22 07:34:44;;;;;;;12.23;10.70;;;;;;;12.45;68.94;100176.69;5038357;28;20234;-80
2021/09/22 07:37:19;;;;;;;11.10;10.00;;;;;;;12.45;69.82;100185.56;5056228;28;20221;-80
2021/09/22 07:40:04;;;;;;;12.00;10.80;;;;;;;12.46;70.24;100189.09;5059120;23;20230;-80
2021/09/22 07:43:38;;;;;;;12.63;10.23;;;;;;;12.66;69.64;100187.88;5054113;28;20218;-79
2021/09/22 07:46:44;;;;;;;11.67;10.57;;;;;;;12.71;69.95;100195.28;5055375;28;20238;-80
2021/09/22 07:50:09;;;;;;;12.90;11.50;;;;;;;12.78;70.32;100188.78;5056523;28;20242;-80
2021/09/22 07:53:22;;;;;;;13.07;11.77;;;;;;;12.70;71.06;100190.94;5088742;23;20390;-79
2021/09/22 07:56:20;;;;;;;12.73;11.53;;;;;;;12.86;70.80;100194.94;5009309;28;20670;-80
2021/09/22 07:59:09;;;;;;;13.90;12.50;;;;;;;12.58;71.36;100185.47;5056747;23;20222;-79
2021/09/22 08:02:23;;;;;;;12.50;11.20;;;;;;;12.84;70.97;100191.66;5059155;22;20554;-80
2021/09/22 08:05:11;;;;;;;12.10;10.93;;;;;;;12.79;71.07;100189.63;4996632;28;20671;-79
2021/09/22 08:08:06;;;;;;;13.43;12.13;;;;;;;12.83;70.95;100184.66;5015937;28;20222;-80
2021/09/22 08:11:08;;;;;;;12.23;11.00;;;;;;;12.72;71.11;100184.31;5033044;28;20245;-80
2021/09/22 08:13:40;;;;;;;18.40;16.50;;;;;;;12.89;71.65;100189.94;5053961;22;20227;-80
2021/09/22 08:16:14;;;;;;;15.27;13.83;;;;;;;12.95;70.72;100182.88;5020942;28;20194;-80
2021/09/22 08:18:45;;;;;;;12.60;11.40;;;;;;;12.88;70.44;100192.88;5053190;28;20228;-79
2021/09/22 08:21:13;;;;;;;11.93;10.87;;;;;;;12.79;70.92;100176.19;5053627;28;20178;-80
2021/09/22 08:23:51;;;;;;;13.73;12.33;;;;;;;12.77;71.07;100189.88;5042853;28;20256;-80
2021/09/22 08:26:30;;;;;;;12.93;11.73;;;;;;;12.92;70.68;100178.78;5052103;28;20234;-80
2021/09/22 08:28:59;;;;;;;12.57;11.40;;;;;;;12.86;70.48;100176.97;5051599;28;20228;-80
2021/09/22 08:31:55;;;;;;;11.63;10.57;;;;;;;12.91;70.51;100195.94;5037724;28;20232;-80
2021/09/22 08:34:28;;;;;;;11.83;10.70;;;;;;;12.95;70.81;100197.13;5051885;28;20237;-79
2021/09/22 08:37:23;;;;;;;10.43;9.53;;;;;;;13.00;70.85;100191.09;5052031;28;20239;-80
2021/09/22 08:39:50;;;;;;;11.47;10.47;;;;;;;12.98;70.67;100199.38;5052499;28;20230;-80
2021/09/22 08:42:18;;;;;;;11.63;10.53;;;;;;;12.99;71.12;100202.91;5052793;28;20179;-79
2021/09/22 08:44:52;;;;;;;11.47;10.27;;;;;;;13.01;70.95;100195.44;5051745;28;20222;-80
2021/09/22 08:47:21;;;;;;;11.77;10.67;;;;;;;12.75;71.47;100175.81;5034656;28;20190;-80
2021/09/22 08:49:55;;;;;;;11.10;10.00;;;;;;;13.07;71.54;100181.91;5052773;28;20228;-80
2021/09/22 08:52:44;;;;;;;10.80;9.70;;;;;;;13.14;69.72;100179.19;5052608;28;20229;-80
2021/09/22 08:55:18;;;;;;;10.80;9.70;;;;;;;13.10;70.99;100159.97;5051253;28;20284;-79
2021/09/22 08:58:12;;;;;;;9.97;9.07;;;;;;;13.34;69.68;100184.38;5081533;23;20256;-80
2021/09/22 09:01:15;;;;;;;8.83;8.03;;;;;;;13.30;69.87;100178.59;5070927;28;20688;-80
2021/09/22 09:03:52;;;;;;;8.03;7.33;;;;;;;13.70;68.91;100181.66;5075765;22;20229;-80
2021/09/22 09:07:01;;;;;;;8.23;7.50;;;;;;;13.76;67.38;100155.69;5077291;23;20233;-80
2021/09/22 09:09:40;;;;;;;6.93;6.33;;;;;;;14.08;66.79;100149.84;5054523;28;20236;-80
2021/09/22 09:12:23;;;;;;;7.03;6.27;;;;;;;14.46;65.57;100159.47;5072483;28;20217;-80
2021/09/22 09:15:14;;;;;;;7.63;6.93;;;;;;;14.56;64.89;100151.59;5043357;28;20190;-80
2021/09/22 09:17:59;;;;;;;7.30;6.40;;;;;;;14.61;65.00;100145.50;5054668;28;20232;-80
2021/09/22 09:20:32;;;;;;;6.73;6.20;;;;;;;14.92;63.87;100155.97;5072021;28;20256;-80
2021/09/22 09:23:16;;;;;;;7.00;6.30;;;;;;;14.72;63.80;100161.72;5072322;28;20185;-81
2021/09/22 09:26:03;;;;;;;6.90;6.30;;;;;;;14.57;64.84;100166.72;5072416;28;20896;-81
2021/09/22 09:28:39;;;;;;;6.97;6.27;;;;;;;14.30;65.04;100154.69;5078382;22;20251;-81
2021/09/22 09:31:12;;;;;;;7.90;6.70;;;;;;;14.51;64.95;100159.59;5055641;28;20189;-80
2021/09/22 09:33:51;;;;;;;7.73;7.00;;;;;;;14.60;66.18;100163.59;5072028;22;20222;-80
2021/09/22 09:36:45;;;;;;;8.10;7.30;;;;;;;14.75;64.50;100168.50;5051463;28;20218;-80
2021/09/22 09:39:29;;;;;;;8.30;7.50;;;;;;;14.98;65.00;100169.31;5050213;28;20283;-80
2021/09/22 09:41:58;;;;;;;8.23;7.43;;;;;;;15.12;63.51;100175.31;5051165;28;20250;-80
2021/09/22 09:44:48;;;;;;;8.50;7.70;;;;;;;15.07;63.88;100167.09;5064653;28;20221;-80
2021/09/22 09:47:21;;;;;;;8.73;7.83;;;;;;;15.03;63.89;100168.63;5050467;28;20262;-80
2021/09/22 09:50:16;;;;;;;8.90;8.00;;;;;;;15.27;63.07;100158.63;5065746;28;20236;-80
2021/09/22 09:52:49;;;;;;;9.03;8.00;;;;;;;15.64;62.22;100157.28;5050938;28;20160;-80
2021/09/22 09:55:16;;;;;;;8.37;7.50;;;;;;;16.00;60.87;100150.69;5050019;28;20223;-81
2021/09/22 09:57:53;;;;;;;7.97;7.20;;;;;;;16.17;59.73;100154.25;5050598;28;20199;-81
2021/09/22 10:00:38;;;;;;;8.80;7.23;;;;;;;16.67;58.40;100145.34;5051645;28;20210;-81
2021/09/22 10:03:09;;;;;;;8.10;6.93;;;;;;;16.70;58.44;100144.88;5050941;28;20198;-80
2021/09/22 10:05:41;;;;;;;8.53;6.97;;;;;;;16.72;57.24;100151.69;5042395;28;20229;-80
2021/09/22 10:08:14;;;;;;;7.83;7.07;;;;;;;16.92;56.44;100159.28;5035576;28;20189;-81
2021/09/22 10:11:07;;;;;;;8.53;7.13;;;;;;;17.14;56.65;100159.31;5028409;28;20233;-81
2021/09/22 10:13:40;;;;;;;7.57;6.87;;;;;;;17.16;56.60;100160.72;5054660;23;20294;-82
2021/09/22 10:16:07;;;;;;;7.67;6.97;;;;;;;16.85;56.77;100160.50;5074449;28;20230;-81
2021/09/22 10:18:39;;;;;;;8.10;6.80;;;;;;;16.63;56.92;100160.44;5057421;28;20214;-81
2021/09/22 10:21:08;;;;;;;7.43;6.47;;;;;;;16.75;57.46;100163.88;5063806;23;20244;-81
2021/09/22 10:23:44;;;;;;;7.40;6.70;;;;;;;16.57;58.34;100147.88;5034536;28;20232;-80
2021/09/22 10:26:14;;;;;;;9.40;6.70;;;;;;;16.68;58.43;100142.41;5050741;28;20254;-80
2021/09/22 10:28:53;;;;;;;9.03;7.17;;;;;;;16.76;58.08;100156.59;5049773;28;20206;-80
2021/09/22 10:31:49;;;;;;;10.20;6.70;;;;;;;16.70;56.92;100148.38;5051184;28;20741;-80
2021/09/22 10:34:34;;;;;;;7.87;7.00;;;;;;;16.69;57.54;100144.06;5052253;28;20215;-80
2021/09/22 10:37:35;;;;;;;8.27;6.60;;;;;;;17.08;57.45;100146.78;5051336;28;20224;-81
2021/09/22 10:40:31;;;;;;;6.93;6.23;;;;;;;17.48;56.20;100138.38;5039677;28;20276;-90
2021/09/22 10:43:19;;;;;;;8.20;6.37;;;;;;;17.80;55.64;100143.94;5033769;28;20232;-88
2021/09/22 10:46:10;;;;;;;6.90;5.77;;;;;;;17.99;54.53;100140.63;5017042;28;20557;-87
2021/09/22 10:48:42;;;;;;;8.70;6.73;;;;;;;17.92;54.44;100142.69;5033547;28;20229;-86
2021/09/22 10:51:10;;;;;;;5.87;5.37;;;;;;;18.23;52.56;100135.72;5017483;28;20317;-89
2021/09/22 10:53:40;;;;;;;6.83;5.70;;;;;;;18.12;53.03;100141.28;5020590;28;20230;-87
2021/09/22 10:56:16;;;;;;;6.43;5.10;;;;;;;17.97;53.50;100160.91;5020721;28;20632;-91
2021/09/22 10:58:53;;;;;;;6.80;5.90;;;;;;;17.95;53.15;100161.19;5024106;28;20260;-90
2021/09/22 11:01:43;;;;;;;7.43;6.10;;;;;;;17.55;53.81;100145.22;5022269;28;20230;-91
2021/09/22 11:04:13;;;;;;;7.70;6.03;;;;;;;17.57;53.83;100131.44;5038465;28;20234;-86
2021/09/22 11:06:47;;;;;;;6.23;5.60;;;;;;;17.33;54.53;100155.25;5021124;28;20229;-91
2021/09/22 11:09:34;;;;;;;6.77;5.67;;;;;;;17.39;54.51;100137.19;5040504;28;20233;-84
2021/09/22 11:12:03;;;;;;;6.73;5.97;;;;;;;17.52;54.87;100143.03;5036101;28;20225;-84
2021/09/22 11:14:30;;;;;;;5.63;5.10;;;;;;;17.62;54.55;100136.97;5026191;28;20347;-90
2021/09/22 11:17:08;;;;;;;5.00;4.50;;;;;;;17.54;54.36;100137.38;5045167;28;20234;-81
2021/09/22 11:20:08;;;;;;;5.57;5.10;;;;;;;17.75;54.30;100139.28;5055184;28;20228;-82
2021/09/22 11:22:37;;;;;;;6.47;4.43;;;;;;;17.74;53.24;100132.22;5053730;28;20261;-82
2021/09/22 11:25:26;;;;;;;5.10;4.70;;;;;;;17.83;53.48;100132.56;5052884;28;20697;-83
2021/09/22 11:28:08;;;;;;;5.13;4.57;;;;;;;18.29;53.13;100137.38;5042491;28;20217;-85
2021/09/22 11:30:35;;;;;;;5.50;5.00;;;;;;;18.82;51.67;100131.03;5019602;28;20233;-83
2021/09/22 11:33:02;;;;;;;5.70;5.10;;;;;;;18.71;50.80;100147.53;5019900;28;20226;-86
2021/09/22 11:35:29;;;;;;;5.30;4.80;;;;;;;18.64;51.47;100130.63;5019388;28;20260;-87
2021/09/22 11:37:58;;;;;;;5.47;4.90;;;;;;;19.11;50.43;100131.50;5019966;28;20237;-92
2021/09/22 11:40:32;;;;;;;5.70;4.70;;;;;;;18.79;50.25;100126.16;5019437;28;20238;-90
2021/09/22 11:43:10;;;;;;;7.03;4.67;;;;;;;18.84;50.48;100130.78;5036074;28;20230;-92
2021/09/22 11:45:49;;;;;;;5.23;4.70;;;;;;;18.60;50.57;100121.38;5037025;28;20288;-89
2021/09/22 11:48:24;;;;;;;5.63;4.93;;;;;;;18.34;51.54;100112.19;5019202;28;20699;-86
2021/09/22 11:50:50;;;;;;;5.07;4.50;;;;;;;18.43;52.20;100114.16;5003202;28;20313;-87
2021/09/22 11:53:19;;;;;;;7.53;4.80;;;;;;;18.88;50.80;100121.03;5019810;28;20222;-91
2021/09/22 11:55:48;;;;;;;5.77;4.70;;;;;;;18.41;51.56;100102.78;5019515;28;20245;-88
2021/09/22 11:58:17;;;;;;;5.90;4.40;;;;;;;18.81;50.98;100121.25;5035647;28;20309;-90
2021/09/22 12:00:48;;;;;;;4.70;4.13;;;;;;;18.73;50.95;100113.63;5019636;28;20233;-85
2021/09/22 12:03:15;;;;;;;5.63;4.60;;;;;;;19.50;50.03;100114.88;5019182;28;20726;-91
2021/09/22 12:05:43;;;;;;;4.97;4.50;;;;;;;19.55;49.41;100107.53;5035605;28;20230;-89
2021/09/22 12:08:11;;;;;;;4.67;4.23;;;;;;;19.46;49.69;100097.44;5035485;28;20313;-93
2021/09/22 12:10:43;;;;;;;5.63;4.30;;;;;;;19.61;49.41;100111.91;5035622;28;20312;-86
2021/09/22 12:13:10;;;;;;;5.80;4.13;;;;;;;19.22;49.84;100103.28;5019158;28;20299;-92
2021/09/22 12:15:37;;;;;;;5.13;4.23;;;;;;;18.97;50.43;100099.63;5019098;28;20226;-92
2021/09/22 12:18:04;;;;;;;5.17;4.57;;;;;;;18.62;52.14;100101.03;5018753;28;20271;-92
2021/09/22 12:20:34;;;;;;;6.13;4.73;;;;;;;18.29;52.48;100109.47;5002814;28;20222;-86
2021/09/22 12:23:04;;;;;;;6.90;4.93;;;;;;;18.57;51.80;100095.56;5018998;28;20238;-90
2021/09/22 12:25:32;;;;;;;5.60;5.00;;;;;;;18.40;51.63;100103.03;5019050;28;20234;-91
2021/09/22 12:28:00;;;;;;;6.23;5.27;;;;;;;18.12;52.22;100087.03;5018874;28;20254;-89
2021/09/22 12:30:28;;;;;;;6.53;5.47;;;;;;;18.00;52.82;100098.88;5002357;28;20234;-91
2021/09/22 12:33:01;;;;;;;6.43;5.17;;;;;;;18.09;52.49;100107.38;5018686;28;20325;-81
2021/09/22 12:35:33;;;;;;;7.03;5.07;;;;;;;18.26;51.80;100112.66;5002532;28;20226;-90
2021/09/22 12:38:02;;;;;;;6.43;4.97;;;;;;;18.55;51.13;100115.91;5035305;28;20226;-85
2021/09/22 12:40:56;;;;;;;6.63;4.97;;;;;;;18.79;50.83;100119.91;5018679;28;20571;-90
2021/09/22 12:43:28;;;;;;;6.43;4.43;;;;;;;18.68;50.61;100105.44;5016680;28;20588;-89
2021/09/22 12:46:30;;;;;;;5.40;4.37;;;;;;;19.11;49.98;100108.94;5018521;28;20568;-89
2021/09/22 12:49:13;;;;;;;5.53;4.23;;;;;;;18.26;51.86;100083.66;5008392;28;20233;-85
2021/09/22 12:51:48;;;;;;;5.30;4.60;;;;;;;18.63;51.30;100096.44;5035212;28;20309;-87
2021/09/22 12:54:16;;;;;;;6.33;5.13;;;;;;;18.59;51.42;100111.59;5002139;28;20313;-80
2021/09/22 12:56:43;;;;;;;5.30;4.80;;;;;;;17.77;53.34;100106.50;5035304;28;20280;-90
2021/09/22 12:59:17;;;;;;;5.63;4.97;;;;;;;17.88;53.44;100108.22;5035171;28;20658;-85
2021/09/22 13:01:51;;;;;;;6.00;5.40;;;;;;;17.84;53.18;100107.09;5035159;28;20585;-86
2021/09/22 13:04:26;;;;;;;5.77;5.20;;;;;;;18.10;52.74;100110.91;5018212;28;20282;-89
2021/09/22 13:06:54;;;;;;;6.77;5.83;;;;;;;17.95;53.64;100114.28;5035858;28;20236;-92
2021/09/22 13:09:35;;;;;;;6.20;5.60;;;;;;;17.90;54.11;100125.91;5018806;28;20315;-89
2021/09/22 13:12:03;;;;;;;5.40;4.90;;;;;;;17.56;54.24;100127.09;5040153;28;20226;-83
2021/09/22 13:14:40;;;;;;;5.93;5.33;;;;;;;17.58;55.27;100124.97;5041791;28;20225;-81
2021/09/22 13:17:07;;;;;;;5.87;4.77;;;;;;;17.34;55.00;100123.56;5034914;28;20703;-89
2021/09/22 13:19:34;;;;;;;6.00;4.87;;;;;;;17.43;55.42;100133.72;5018284;28;20283;-89